createdAt,value
2017-10-22T00:00:35.923Z,69.30
2017-10-22T00:03:03.390Z,69.40
2017-10-22T00:05:30.847Z,69.40
2017-10-22T00:07:58.298Z,69.50
2017-10-22T00:10:25.760Z,69.40
2017-10-22T00:12:53.218Z,69.20
2017-10-22T00:15:21.443Z,69.40
2017-10-22T00:17:48.902Z,69.50
2017-10-22T00:20:16.365Z,69.60
2017-10-22T00:22:43.867Z,69.20
2017-10-22T00:25:11.318Z,69.20
2017-10-22T00:27:38.782Z,69.00
2017-10-22T00:30:07.002Z,69.20
2017-10-22T00:32:34.471Z,69.30
2017-10-22T00:35:01.918Z,69.10
2017-10-22T00:37:29.403Z,69.20
2017-10-22T00:39:56.859Z,69.10
2017-10-22T00:42:24.305Z,69.20
2017-10-22T00:44:51.774Z,69.10
2017-10-22T00:47:19.222Z,69.10
2017-10-22T00:49:46.684Z,69.10
2017-10-22T00:52:14.143Z,68.90
2017-10-22T00:54:41.607Z,69.20
2017-10-22T00:57:09.066Z,69.30
2017-10-22T00:59:36.538Z,69.50
2017-10-22T01:02:03.979Z,69.40
2017-10-22T01:04:31.460Z,69.40
2017-10-22T01:06:58.940Z,69.20
2017-10-22T01:09:27.171Z,69.00
2017-10-22T01:11:54.635Z,69.00
2017-10-22T01:14:22.655Z,69.00
2017-10-22T01:16:50.096Z,69.00
2017-10-22T01:19:17.558Z,69.00
2017-10-22T01:21:45.013Z,68.90
2017-10-22T01:24:12.466Z,68.90
2017-10-22T01:26:39.928Z,69.30
2017-10-22T01:29:07.403Z,69.00
2017-10-22T01:31:34.850Z,68.90
2017-10-22T01:34:02.306Z,69.20
2017-10-22T01:36:29.754Z,69.30
2017-10-22T01:38:57.979Z,69.00
2017-10-22T01:41:25.441Z,69.00
2017-10-22T01:43:52.918Z,68.90
2017-10-22T01:46:20.358Z,68.80
2017-10-22T01:48:47.825Z,68.80
2017-10-22T01:51:15.282Z,68.70
2017-10-22T01:53:42.738Z,68.90
2017-10-22T01:56:10.193Z,69.00
2017-10-22T01:58:37.657Z,69.00
2017-10-22T02:01:05.109Z,69.10
2017-10-22T02:03:32.568Z,69.00
2017-10-22T02:06:00.023Z,69.00
2017-10-22T02:08:27.479Z,69.00
2017-10-22T02:10:54.956Z,68.90
2017-10-22T02:13:22.414Z,68.90
2017-10-22T02:15:49.877Z,69.00
2017-10-22T02:18:17.333Z,68.80
2017-10-22T02:20:44.790Z,69.00
2017-10-22T02:23:12.238Z,68.90
2017-10-22T02:25:39.686Z,68.90
2017-10-22T02:28:07.141Z,68.70
2017-10-22T02:30:34.620Z,68.80
2017-10-22T02:33:02.847Z,68.90
2017-10-22T02:35:30.295Z,68.90
2017-10-22T02:37:57.752Z,68.80
2017-10-22T02:40:25.201Z,68.90
2017-10-22T02:42:53.418Z,68.70
2017-10-22T02:45:20.875Z,68.70
2017-10-22T02:47:48.329Z,68.80
2017-10-22T02:50:15.786Z,68.80
2017-10-22T02:52:43.246Z,68.90
2017-10-22T02:55:10.698Z,68.70
2017-10-22T02:57:38.158Z,68.90
2017-10-22T03:00:05.620Z,68.60
2017-10-22T03:02:33.074Z,68.80
2017-10-22T03:05:00.531Z,68.50
2017-10-22T03:07:27.975Z,68.50
2017-10-22T03:09:55.434Z,68.60
2017-10-22T03:12:22.918Z,68.60
2017-10-22T03:14:51.134Z,68.70
2017-10-22T03:17:18.585Z,68.70
2017-10-22T03:19:46.801Z,68.70
2017-10-22T03:22:14.262Z,68.70
2017-10-22T03:24:41.725Z,68.50
2017-10-22T03:27:09.171Z,68.50
2017-10-22T03:29:36.613Z,68.60
2017-10-22T03:32:04.088Z,68.70
2017-10-22T03:34:31.530Z,68.50
2017-10-22T03:36:59.014Z,68.70
2017-10-22T03:39:26.475Z,68.50
2017-10-22T03:41:53.927Z,68.50
2017-10-22T03:44:21.384Z,68.50
2017-10-22T03:46:48.834Z,68.70
2017-10-22T03:49:16.309Z,68.80
2017-10-22T03:51:43.767Z,68.70
2017-10-22T03:54:11.246Z,68.40
2017-10-22T03:56:38.697Z,68.50
2017-10-22T03:59:06.925Z,68.50
2017-10-22T04:01:34.386Z,68.50
2017-10-22T04:04:01.836Z,68.50
2017-10-22T04:06:29.303Z,68.40
2017-10-22T04:08:56.782Z,68.30
2017-10-22T04:11:24.249Z,68.40
2017-10-22T04:13:51.718Z,68.30
2017-10-22T04:16:19.166Z,68.40
2017-10-22T04:18:46.631Z,68.10
2017-10-22T04:21:15.614Z,68.20
2017-10-22T04:23:43.087Z,68.20
2017-10-22T04:26:10.530Z,68.00
2017-10-22T04:28:38.006Z,68.20
2017-10-22T04:31:06.253Z,68.40
2017-10-22T04:33:33.722Z,68.40
2017-10-22T04:36:01.187Z,68.10
2017-10-22T04:38:28.643Z,68.20
2017-10-22T04:40:56.889Z,68.20
2017-10-22T04:43:24.353Z,68.20
2017-10-22T04:45:51.811Z,68.20
2017-10-22T04:48:19.266Z,68.00
2017-10-22T04:50:46.723Z,67.90
2017-10-22T04:53:14.204Z,67.90
2017-10-22T04:55:43.162Z,68.00
2017-10-22T04:58:10.620Z,68.00
2017-10-22T05:00:38.098Z,68.00
2017-10-22T05:03:05.564Z,67.80
2017-10-22T05:05:33.034Z,67.80
2017-10-22T05:08:01.265Z,67.90
2017-10-22T05:10:28.722Z,67.90
2017-10-22T05:12:56.189Z,67.70
2017-10-22T05:15:23.646Z,67.80
2017-10-22T05:17:51.109Z,68.00
2017-10-22T05:20:18.561Z,67.90
2017-10-22T05:22:46.018Z,67.90
2017-10-22T05:25:13.475Z,67.70
2017-10-22T05:27:40.949Z,67.80
2017-10-22T05:30:08.423Z,67.90
2017-10-22T05:32:35.870Z,67.80
2017-10-22T05:35:03.334Z,67.80
2017-10-22T05:37:30.799Z,67.80
2017-10-22T05:39:59.039Z,67.80
2017-10-22T05:42:26.492Z,67.80
2017-10-22T05:44:53.954Z,67.80
2017-10-22T05:47:21.415Z,67.80
2017-10-22T05:49:48.861Z,67.80
2017-10-22T05:52:16.323Z,67.60
2017-10-22T05:54:43.797Z,67.80
2017-10-22T05:57:11.271Z,67.70
2017-10-22T05:59:38.723Z,67.90
2017-10-22T06:02:06.179Z,67.70
2017-10-22T06:04:33.627Z,67.60
2017-10-22T06:07:01.088Z,67.70
2017-10-22T06:09:28.545Z,67.90
2017-10-22T06:11:56.011Z,67.90
2017-10-22T06:14:23.474Z,67.90
2017-10-22T06:16:50.926Z,67.90
2017-10-22T06:19:18.381Z,67.90
2017-10-22T06:21:45.869Z,67.90
2017-10-22T06:24:13.340Z,67.60
2017-10-22T06:26:41.562Z,67.60
2017-10-22T06:29:09.019Z,67.60
2017-10-22T06:31:36.474Z,67.70
2017-10-22T06:34:03.941Z,68.00
2017-10-22T06:36:31.390Z,67.90
2017-10-22T06:38:58.874Z,67.90
2017-10-22T06:41:27.090Z,68.00
2017-10-22T06:43:54.611Z,68.00
2017-10-22T06:46:22.042Z,68.00
2017-10-22T06:48:49.547Z,68.10
2017-10-22T06:51:16.999Z,68.00
2017-10-22T06:53:44.494Z,68.10
2017-10-22T06:56:11.995Z,68.10
2017-10-22T06:58:40.246Z,67.80
2017-10-22T07:01:08.471Z,67.90
2017-10-22T07:03:35.918Z,67.90
2017-10-22T07:06:04.154Z,68.00
2017-10-22T07:08:31.611Z,68.00
2017-10-22T07:10:59.081Z,67.90
2017-10-22T07:13:26.545Z,67.70
2017-10-22T07:15:54.020Z,67.80
2017-10-22T07:18:22.249Z,67.70
2017-10-22T07:20:49.718Z,67.70
2017-10-22T07:23:17.183Z,67.70
2017-10-22T07:25:44.643Z,67.70
2017-10-22T07:28:12.434Z,67.50
2017-10-22T07:30:41.057Z,67.60
2017-10-22T07:33:08.494Z,67.50
2017-10-22T07:35:36.109Z,67.60
2017-10-22T07:38:03.574Z,67.60
2017-10-22T07:40:31.801Z,68.20
2017-10-22T07:42:59.240Z,68.00
2017-10-22T07:45:26.710Z,68.10
2017-10-22T07:47:54.187Z,68.00
2017-10-22T07:50:21.670Z,68.20
2017-10-22T07:52:49.125Z,68.00
2017-10-22T07:55:16.678Z,67.80
2017-10-22T07:57:44.121Z,67.60
2017-10-22T08:00:11.589Z,67.70
2017-10-22T08:02:39.068Z,67.70
2017-10-22T08:05:06.538Z,67.90
2017-10-22T08:07:34.757Z,68.00
2017-10-22T08:10:02.211Z,67.90
2017-10-22T08:12:29.682Z,68.00
2017-10-22T08:14:57.150Z,68.20
2017-10-22T08:17:24.633Z,67.90
2017-10-22T08:19:52.846Z,67.90
2017-10-22T08:22:20.342Z,67.90
2017-10-22T08:24:47.822Z,67.70
2017-10-22T08:27:15.299Z,67.90
2017-10-22T08:29:42.786Z,68.10
2017-10-22T08:32:10.266Z,68.00
2017-10-22T08:34:37.719Z,67.90
2017-10-22T08:37:05.178Z,68.10
2017-10-22T08:39:32.642Z,68.00
2017-10-22T08:42:00.086Z,67.90
2017-10-22T08:44:27.549Z,67.80
2017-10-22T08:46:55.006Z,67.80
2017-10-22T08:49:22.498Z,68.00
2017-10-22T08:51:49.950Z,67.90
2017-10-22T08:54:18.182Z,68.80
2017-10-22T08:56:45.629Z,68.10
2017-10-22T08:59:13.098Z,68.40
2017-10-22T09:01:40.542Z,68.40
2017-10-22T09:04:08.002Z,68.30
2017-10-22T09:06:35.463Z,68.40
2017-10-22T09:09:02.921Z,68.60
2017-10-22T09:11:30.382Z,68.50
2017-10-22T09:13:57.851Z,68.40
2017-10-22T09:16:25.298Z,68.60
2017-10-22T09:18:52.781Z,69.40
2017-10-22T09:21:20.223Z,68.70
2017-10-22T09:23:47.686Z,68.80
2017-10-22T09:26:15.276Z,68.70
2017-10-22T09:28:42.723Z,68.90
2017-10-22T09:31:10.199Z,68.90
2017-10-22T09:33:38.439Z,68.90
2017-10-22T09:36:06.029Z,68.90
2017-10-22T09:38:34.262Z,68.90
2017-10-22T09:41:01.714Z,68.80
2017-10-22T09:43:29.162Z,68.80
2017-10-22T09:45:56.643Z,69.00
2017-10-22T09:48:24.085Z,69.00
2017-10-22T09:50:51.548Z,69.00
2017-10-22T09:53:19.011Z,68.90
2017-10-22T09:55:46.474Z,68.90
2017-10-22T09:58:13.919Z,68.90
2017-10-22T10:00:41.387Z,69.00
2017-10-22T10:03:08.850Z,69.10
2017-10-22T10:05:36.315Z,69.00
2017-10-22T10:08:03.774Z,69.10
2017-10-22T10:10:31.257Z,69.10
2017-10-22T10:12:59.472Z,69.00
2017-10-22T10:15:26.949Z,69.00
2017-10-22T10:17:54.410Z,68.90
2017-10-22T10:20:21.881Z,68.70
2017-10-22T10:22:49.347Z,68.70
2017-10-22T10:25:16.802Z,68.70
2017-10-22T10:27:44.271Z,68.60
2017-10-22T10:30:12.489Z,68.80
2017-10-22T10:32:39.974Z,68.70
2017-10-22T10:35:07.428Z,68.70
2017-10-22T10:37:34.881Z,68.80
2017-10-22T10:40:02.346Z,68.80
2017-10-22T10:42:29.794Z,68.80
2017-10-22T10:44:57.238Z,69.00
2017-10-22T10:47:24.699Z,68.80
2017-10-22T10:49:52.142Z,68.50
2017-10-22T10:52:19.604Z,68.50
2017-10-22T10:54:47.049Z,68.50
2017-10-22T10:57:14.490Z,68.50
2017-10-22T10:59:41.937Z,68.50
2017-10-22T11:02:10.169Z,68.90
2017-10-22T11:04:37.637Z,68.70
2017-10-22T11:07:05.114Z,68.70
2017-10-22T11:09:32.599Z,68.60
2017-10-22T11:12:00.896Z,68.70
2017-10-22T11:14:28.370Z,69.00
2017-10-22T11:16:55.831Z,68.50
2017-10-22T11:19:23.293Z,68.20
2017-10-22T11:21:50.757Z,68.40
2017-10-22T11:24:18.207Z,68.60
2017-10-22T11:26:45.662Z,68.70
2017-10-22T11:29:13.126Z,68.80
2017-10-22T11:31:40.590Z,68.50
2017-10-22T11:34:08.054Z,68.70
2017-10-22T11:36:35.535Z,68.60
2017-10-22T11:39:03.794Z,68.30
2017-10-22T11:41:32.015Z,68.30
2017-10-22T11:43:59.462Z,68.40
2017-10-22T11:46:26.924Z,68.40
2017-10-22T11:48:54.374Z,68.00
2017-10-22T11:51:21.818Z,67.80
2017-10-22T11:53:50.068Z,65.80
2017-10-22T11:56:17.526Z,65.70
2017-10-22T11:58:45.003Z,62.50
2017-10-22T12:01:13.223Z,58.20
2017-10-22T12:03:40.738Z,58.10
2017-10-22T12:06:09.054Z,61.60
2017-10-22T12:08:36.507Z,61.50
2017-10-22T12:11:03.975Z,60.70
2017-10-22T12:13:31.422Z,60.20
2017-10-22T12:15:58.881Z,61.20
2017-10-22T12:18:26.379Z,62.70
2017-10-22T12:20:53.873Z,63.80
2017-10-22T12:23:21.314Z,65.00
2017-10-22T12:25:49.667Z,66.00
2017-10-22T12:28:17.126Z,65.80
2017-10-22T12:30:44.577Z,66.00
2017-10-22T12:33:12.038Z,66.60
2017-10-22T12:35:40.273Z,64.80
2017-10-22T12:38:07.730Z,64.80
2017-10-22T12:40:35.195Z,64.70
2017-10-22T12:43:02.655Z,65.30
2017-10-22T12:45:30.103Z,65.90
2017-10-22T12:47:57.568Z,66.80
2017-10-22T12:50:25.069Z,66.90
2017-10-22T12:52:53.295Z,60.10
2017-10-22T12:55:20.761Z,60.00
2017-10-22T12:57:48.211Z,58.90
2017-10-22T13:00:15.667Z,60.10
2017-10-22T13:02:43.130Z,61.20
2017-10-22T13:05:10.587Z,61.70
2017-10-22T13:07:38.059Z,62.90
2017-10-22T13:10:05.506Z,64.30
2017-10-22T13:12:32.971Z,65.50
2017-10-22T13:15:00.415Z,66.60
2017-10-22T13:17:27.895Z,67.10
2017-10-22T13:19:55.351Z,67.50
2017-10-22T13:22:22.806Z,67.80
2017-10-22T13:24:51.022Z,66.80
2017-10-22T13:27:19.251Z,66.30
2017-10-22T13:29:47.459Z,66.30
2017-10-22T13:32:14.910Z,66.30
2017-10-22T13:34:42.369Z,66.30
2017-10-22T13:37:09.819Z,67.00
2017-10-22T13:39:37.266Z,68.00
2017-10-22T13:42:04.718Z,68.20
2017-10-22T13:44:32.174Z,68.50
2017-10-22T13:47:00.378Z,69.30
2017-10-22T13:49:27.833Z,69.20
2017-10-22T13:51:55.288Z,69.40
2017-10-22T13:54:22.735Z,69.30
2017-10-22T13:56:50.189Z,69.50
2017-10-22T13:59:17.656Z,69.80
2017-10-22T14:01:45.089Z,69.70
2017-10-22T14:04:12.549Z,69.60
2017-10-22T14:06:39.996Z,69.60
2017-10-22T14:09:07.455Z,69.60
2017-10-22T14:11:34.922Z,69.30
2017-10-22T14:14:02.382Z,69.40
2017-10-22T14:16:29.847Z,69.70
2017-10-22T14:18:57.275Z,69.70
2017-10-22T14:21:24.747Z,69.70
2017-10-22T14:23:52.214Z,69.70
2017-10-22T14:26:19.708Z,69.10
2017-10-22T14:28:47.935Z,67.50
2017-10-22T14:31:15.383Z,67.40
2017-10-22T14:33:42.840Z,67.10
2017-10-22T14:36:11.147Z,67.20
2017-10-22T14:38:38.598Z,67.30
2017-10-22T14:41:06.059Z,67.40
2017-10-22T14:43:33.506Z,67.20
2017-10-22T14:46:01.003Z,67.40
2017-10-22T14:48:29.214Z,67.90
2017-10-22T14:50:56.676Z,67.90
2017-10-22T14:53:24.136Z,68.30
2017-10-22T14:55:52.356Z,68.60
2017-10-22T14:58:19.805Z,68.60
2017-10-22T15:00:47.259Z,68.80
2017-10-22T15:03:14.698Z,68.80
2017-10-22T15:05:42.162Z,68.50
2017-10-22T15:08:09.602Z,68.00
2017-10-22T15:10:37.059Z,68.20
2017-10-22T15:13:04.515Z,68.40
2017-10-22T15:15:31.973Z,68.60
2017-10-22T15:17:59.418Z,68.30
2017-10-22T15:20:26.894Z,68.10
2017-10-22T15:22:54.342Z,67.90
2017-10-22T15:25:21.799Z,67.70
2017-10-22T15:27:49.250Z,68.10
2017-10-22T15:30:16.723Z,68.10
2017-10-22T15:32:44.166Z,67.90
2017-10-22T15:35:11.642Z,68.50
2017-10-22T15:37:39.094Z,68.40
2017-10-22T15:40:06.546Z,68.50
2017-10-22T15:42:34.004Z,68.50
2017-10-22T15:45:01.467Z,68.60
2017-10-22T15:47:28.915Z,68.80
2017-10-22T15:49:56.401Z,68.80
2017-10-22T15:52:23.877Z,68.70
2017-10-22T15:54:51.335Z,69.10
2017-10-22T15:57:18.814Z,69.00
2017-10-22T15:59:47.034Z,68.90
2017-10-22T16:02:14.510Z,68.90
2017-10-22T16:04:41.978Z,69.10
2017-10-22T16:07:09.454Z,69.10
2017-10-22T16:09:37.676Z,72.00
2017-10-22T16:12:05.154Z,72.00
2017-10-22T16:14:32.613Z,72.50
2017-10-22T16:17:00.086Z,68.90
2017-10-22T16:19:27.549Z,66.80
2017-10-22T16:21:55.805Z,66.00
2017-10-22T16:24:24.144Z,66.00
2017-10-22T16:26:52.261Z,65.40
2017-10-22T16:29:19.772Z,66.00
2017-10-22T16:31:48.131Z,66.20
2017-10-22T16:34:15.727Z,66.20
2017-10-22T16:36:43.203Z,66.20
2017-10-22T16:39:10.663Z,66.50
2017-10-22T16:41:38.127Z,66.40
2017-10-22T16:44:05.679Z,66.50
2017-10-22T16:46:33.159Z,67.30
2017-10-22T16:49:00.612Z,67.20
2017-10-22T16:51:28.085Z,67.00
2017-10-22T16:53:55.559Z,66.60
2017-10-22T16:56:23.007Z,67.00
2017-10-22T16:58:50.482Z,67.30
2017-10-22T17:01:17.937Z,67.00
2017-10-22T17:03:46.316Z,67.50
2017-10-22T17:06:13.760Z,67.00
2017-10-22T17:08:41.989Z,66.90
2017-10-22T17:11:13.397Z,66.90
2017-10-22T17:13:40.851Z,66.50
2017-10-22T17:16:09.063Z,67.00
2017-10-22T17:18:36.535Z,67.00
2017-10-22T17:21:03.974Z,66.60
2017-10-22T17:23:31.467Z,66.40
2017-10-22T17:25:58.959Z,66.40
2017-10-22T17:28:26.445Z,66.50
2017-10-22T17:30:54.679Z,66.50
2017-10-22T17:33:22.902Z,66.90
2017-10-22T17:35:50.350Z,66.90
2017-10-22T17:38:17.807Z,67.00
2017-10-22T17:40:45.278Z,67.00
2017-10-22T17:43:12.724Z,66.40
2017-10-22T17:48:14.106Z,66.80
2017-10-22T17:50:41.567Z,66.70
2017-10-22T17:53:09.001Z,66.60
2017-10-22T17:55:36.481Z,66.30
2017-10-22T17:58:03.947Z,66.40
2017-10-22T18:00:31.439Z,66.50
2017-10-22T18:02:58.887Z,66.60
2017-10-22T18:05:26.480Z,66.80
2017-10-22T18:07:53.944Z,66.70
2017-10-22T18:10:21.409Z,65.90
2017-10-22T18:12:50.887Z,65.90
2017-10-22T18:15:18.376Z,66.10
2017-10-22T18:17:45.839Z,66.70
2017-10-22T18:20:13.322Z,66.80
2017-10-22T18:22:40.771Z,66.50
2017-10-22T18:25:08.258Z,67.00
2017-10-22T18:27:35.698Z,67.10
2017-10-22T18:30:03.170Z,66.80
2017-10-22T18:32:31.398Z,67.30
2017-10-22T18:34:58.861Z,67.30
2017-10-22T18:37:26.310Z,67.10
2017-10-22T18:39:53.766Z,66.80
2017-10-22T18:42:21.241Z,67.60
2017-10-22T18:44:48.714Z,67.20
2017-10-22T18:47:16.174Z,67.70
2017-10-22T18:49:43.627Z,67.60
2017-10-22T18:52:11.098Z,67.80
2017-10-22T18:54:39.336Z,67.80
2017-10-22T18:57:06.806Z,67.70
2017-10-22T18:59:34.262Z,67.40
2017-10-22T19:02:01.722Z,67.30
2017-10-22T19:04:29.205Z,67.20
2017-10-22T19:06:57.427Z,67.10
2017-10-22T19:09:24.907Z,67.10
2017-10-22T19:11:52.378Z,67.40
2017-10-22T19:14:20.594Z,67.60
2017-10-22T19:16:48.867Z,68.10
2017-10-22T19:19:17.083Z,68.50
2017-10-22T19:21:44.566Z,68.50
2017-10-22T19:24:12.058Z,68.50
2017-10-22T19:26:40.282Z,68.20
2017-10-22T19:29:07.735Z,68.10
2017-10-22T19:31:35.193Z,67.80
2017-10-22T19:34:02.646Z,67.70
2017-10-22T19:36:30.117Z,68.20
2017-10-22T19:38:57.623Z,68.20
2017-10-22T19:41:25.848Z,67.90
2017-10-22T19:43:53.336Z,67.90
2017-10-22T19:46:20.833Z,68.00
2017-10-22T19:48:49.038Z,68.30
2017-10-22T19:51:16.532Z,68.30
2017-10-22T19:53:44.750Z,68.60
2017-10-22T19:56:12.222Z,68.60
2017-10-22T19:58:39.749Z,68.60
2017-10-22T20:01:07.985Z,68.20
2017-10-22T20:03:36.511Z,68.20
2017-10-22T20:06:04.812Z,68.70
2017-10-22T20:08:33.265Z,68.70
2017-10-22T20:11:00.718Z,68.80
2017-10-22T20:13:28.231Z,69.00
2017-10-22T20:15:57.202Z,68.50
2017-10-22T20:18:24.663Z,68.50
2017-10-22T20:20:52.119Z,68.70
2017-10-22T20:23:19.635Z,69.10
2017-10-22T20:25:47.865Z,69.10
2017-10-22T20:28:15.322Z,69.10
2017-10-22T20:30:42.783Z,69.10
2017-10-22T20:33:10.242Z,68.60
2017-10-22T20:35:37.719Z,68.80
2017-10-22T20:38:05.175Z,68.60
2017-10-22T20:40:32.634Z,68.70
2017-10-22T20:43:00.090Z,68.70
2017-10-22T20:45:27.563Z,68.50
2017-10-22T20:47:55.824Z,68.50
2017-10-22T20:50:23.272Z,68.50
2017-10-22T20:52:50.738Z,68.60
2017-10-22T20:55:18.211Z,68.70
2017-10-22T20:57:46.424Z,72.60
2017-10-22T21:00:13.903Z,72.50
2017-10-22T21:02:41.362Z,71.20
2017-10-22T21:05:08.832Z,69.60
2017-10-22T21:07:36.323Z,69.10
2017-10-22T21:10:04.546Z,69.20
2017-10-22T21:12:32.002Z,69.20
2017-10-22T21:14:59.519Z,68.90
2017-10-22T21:17:26.983Z,69.70
2017-10-22T21:19:55.223Z,69.80
2017-10-22T21:22:23.454Z,69.60
2017-10-22T21:24:50.920Z,69.50
2017-10-22T21:27:18.370Z,69.50
2017-10-22T21:29:45.866Z,69.40
2017-10-22T21:32:13.322Z,69.80
2017-10-22T21:34:40.793Z,70.20
2017-10-22T21:37:08.269Z,70.50
2017-10-22T21:39:36.522Z,71.20
2017-10-22T21:42:04.817Z,71.20
2017-10-22T21:44:33.026Z,71.40
2017-10-22T21:47:00.494Z,71.30
2017-10-22T21:49:27.938Z,70.80
2017-10-22T21:51:55.402Z,71.20
2017-10-22T21:54:23.398Z,71.50
2017-10-22T21:56:50.858Z,71.60
2017-10-22T21:59:18.316Z,71.50
2017-10-22T22:01:45.774Z,71.60
2017-10-22T22:04:13.222Z,72.20
2017-10-22T22:06:40.694Z,72.10
2017-10-22T22:09:08.151Z,71.70
2017-10-22T22:11:35.636Z,71.80
2017-10-22T22:14:03.874Z,71.90
2017-10-22T22:16:31.329Z,71.90
2017-10-22T22:18:58.815Z,71.70
2017-10-22T22:21:28.162Z,72.80
2017-10-22T22:23:55.622Z,71.90
2017-10-22T22:26:23.106Z,71.40
2017-10-22T22:28:50.594Z,72.00
2017-10-22T22:31:18.082Z,71.90
2017-10-22T22:33:45.525Z,72.20
2017-10-22T22:36:12.973Z,72.10
2017-10-22T22:38:40.450Z,72.60
2017-10-22T22:41:07.893Z,72.80
2017-10-22T22:43:35.351Z,72.60
2017-10-22T22:46:02.799Z,72.20
2017-10-22T22:48:30.258Z,71.70
2017-10-22T22:50:58.502Z,70.70
2017-10-22T22:53:25.953Z,70.60
2017-10-22T22:55:53.398Z,71.20
2017-10-22T22:58:20.859Z,71.40
2017-10-22T23:00:48.330Z,71.80
2017-10-22T23:03:15.817Z,71.90
2017-10-22T23:05:43.258Z,72.00
2017-10-22T23:08:10.714Z,72.50
2017-10-22T23:10:38.934Z,71.20
2017-10-22T23:13:06.391Z,71.20
2017-10-22T23:15:34.732Z,72.20
2017-10-22T23:18:03.687Z,71.60
2017-10-22T23:20:31.138Z,71.50
2017-10-22T23:22:58.666Z,71.50
2017-10-22T23:25:26.902Z,71.40
2017-10-22T23:27:54.354Z,71.40
2017-10-22T23:30:21.918Z,70.80
2017-10-22T23:32:50.912Z,70.70
2017-10-22T23:35:18.397Z,70.70
2017-10-22T23:37:46.639Z,70.90
2017-10-22T23:40:14.106Z,70.80
2017-10-22T23:42:41.604Z,70.90
2017-10-22T23:45:09.830Z,70.90
2017-10-22T23:47:37.287Z,71.60
2017-10-22T23:50:04.778Z,71.40
2017-10-22T23:52:33.043Z,71.90
2017-10-22T23:55:00.555Z,71.70
2017-10-22T23:57:28.007Z,72.20
2017-10-22T23:59:55.458Z,72.00
